sensor_id;sensor_type;location;lat;lon;timestamp;P1;durP1;ratioP1;P2;durP2;ratioP2
16957;SDS011;8595;52.542;11.974;2023-04-01T00:00:32;5.80;;;4.00;;
16957;SDS011;8595;52.542;11.974;2023-04-01T00:03:00;5.38;;;4.57;;
16957;SDS011;8595;52.542;11.974;2023-04-01T00:05:27;9.13;;;4.63;;
16957;SDS011;8595;52.542;11.974;2023-04-01T00:07:53;6.07;;;4.32;;
16957;SDS011;8595;52.542;11.974;2023-04-01T00:10:22;8.02;;;4.53;;
16957;SDS011;8595;52.542;11.974;2023-04-01T00:12:48;6.00;;;4.00;;
16957;SDS011;8595;52.542;11.974;2023-04-01T00:15:15;7.32;;;3.80;;
16957;SDS011;8595;52.542;11.974;2023-04-01T00:17:43;7.47;;;3.88;;
16957;SDS011;8595;52.542;11.974;2023-04-01T00:20:11;5.43;;;3.33;;
16957;SDS011;8595;52.542;11.974;2023-04-01T00:22:39;5.30;;;3.70;;
16957;SDS011;8595;52.542;11.974;2023-04-01T00:25:06;10.23;;;4.03;;
16957;SDS011;8595;52.542;11.974;2023-04-01T00:27:35;6.90;;;3.40;;
16957;SDS011;8595;52.542;11.974;2023-04-01T00:30:02;5.43;;;3.80;;
16957;SDS011;8595;52.542;11.974;2023-04-01T00:32:29;7.00;;;4.40;;
16957;SDS011;8595;52.542;11.974;2023-04-01T00:34:57;7.05;;;4.00;;
16957;SDS011;8595;52.542;11.974;2023-04-01T00:37:24;8.47;;;3.97;;
16957;SDS011;8595;52.542;11.974;2023-04-01T00:39:51;7.30;;;4.32;;
16957;SDS011;8595;52.542;11.974;2023-04-01T00:42:18;8.70;;;4.63;;
16957;SDS011;8595;52.542;11.974;2023-04-01T00:44:47;5.10;;;3.60;;
16957;SDS011;8595;52.542;11.974;2023-04-01T00:47:16;7.03;;;5.00;;
16957;SDS011;8595;52.542;11.974;2023-04-01T00:49:44;4.97;;;3.95;;
16957;SDS011;8595;52.542;11.974;2023-04-01T00:52:13;11.95;;;4.47;;
16957;SDS011;8595;52.542;11.974;2023-04-01T00:54:43;7.03;;;4.25;;
16957;SDS011;8595;52.542;11.974;2023-04-01T00:57:15;4.95;;;3.53;;
16957;SDS011;8595;52.542;11.974;2023-04-01T00:59:47;6.13;;;3.50;;
16957;SDS011;8595;52.542;11.974;2023-04-01T01:02:17;6.00;;;4.30;;
16957;SDS011;8595;52.542;11.974;2023-04-01T01:04:45;5.43;;;3.70;;
16957;SDS011;8595;52.542;11.974;2023-04-01T01:07:14;7.80;;;3.95;;
16957;SDS011;8595;52.542;11.974;2023-04-01T01:09:51;6.70;;;4.10;;
16957;SDS011;8595;52.542;11.974;2023-04-01T01:12:24;4.70;;;3.78;;
16957;SDS011;8595;52.542;11.974;2023-04-01T01:14:57;5.72;;;3.83;;
16957;SDS011;8595;52.542;11.974;2023-04-01T01:17:37;6.70;;;3.50;;
16957;SDS011;8595;52.542;11.974;2023-04-01T01:20:18;7.15;;;3.53;;
16957;SDS011;8595;52.542;11.974;2023-04-01T01:23:08;6.95;;;3.45;;
16957;SDS011;8595;52.542;11.974;2023-04-01T01:26:02;5.47;;;3.80;;
16957;SDS011;8595;52.542;11.974;2023-04-01T01:28:47;4.13;;;3.22;;
16957;SDS011;8595;52.542;11.974;2023-04-01T01:31:26;7.57;;;3.30;;
16957;SDS011;8595;52.542;11.974;2023-04-01T01:34:02;10.77;;;3.80;;
16957;SDS011;8595;52.542;11.974;2023-04-01T01:36:39;4.13;;;2.78;;
16957;SDS011;8595;52.542;11.974;2023-04-01T01:39:10;5.47;;;3.30;;
16957;SDS011;8595;52.542;11.974;2023-04-01T01:41:39;7.43;;;4.37;;
16957;SDS011;8595;52.542;11.974;2023-04-01T01:44:09;8.25;;;4.30;;
16957;SDS011;8595;52.542;11.974;2023-04-01T01:46:40;7.07;;;4.28;;
16957;SDS011;8595;52.542;11.974;2023-04-01T01:49:08;9.93;;;4.45;;
16957;SDS011;8595;52.542;11.974;2023-04-01T01:51:38;8.05;;;4.10;;
16957;SDS011;8595;52.542;11.974;2023-04-01T01:54:11;8.15;;;3.92;;
16957;SDS011;8595;52.542;11.974;2023-04-01T01:56:38;6.50;;;4.18;;
16957;SDS011;8595;52.542;11.974;2023-04-01T01:59:05;5.57;;;3.95;;
16957;SDS011;8595;52.542;11.974;2023-04-01T02:01:37;7.78;;;3.78;;
16957;SDS011;8595;52.542;11.974;2023-04-01T02:04:07;7.43;;;3.75;;
16957;SDS011;8595;52.542;11.974;2023-04-01T02:06:37;5.05;;;3.28;;
16957;SDS011;8595;52.542;11.974;2023-04-01T02:09:08;4.95;;;3.50;;
16957;SDS011;8595;52.542;11.974;2023-04-01T02:11:38;4.82;;;3.28;;
16957;SDS011;8595;52.542;11.974;2023-04-01T02:14:10;6.22;;;3.80;;
16957;SDS011;8595;52.542;11.974;2023-04-01T02:16:42;7.05;;;3.45;;
16957;SDS011;8595;52.542;11.974;2023-04-01T02:19:12;5.07;;;3.08;;
16957;SDS011;8595;52.542;11.974;2023-04-01T02:21:41;8.60;;;4.35;;
16957;SDS011;8595;52.542;11.974;2023-04-01T02:24:11;10.18;;;4.25;;
16957;SDS011;8595;52.542;11.974;2023-04-01T02:26:40;6.00;;;3.13;;
16957;SDS011;8595;52.542;11.974;2023-04-01T02:29:08;10.45;;;3.90;;
16957;SDS011;8595;52.542;11.974;2023-04-01T02:31:37;5.15;;;3.22;;
16957;SDS011;8595;52.542;11.974;2023-04-01T02:34:04;5.93;;;3.97;;
16957;SDS011;8595;52.542;11.974;2023-04-01T02:36:31;6.10;;;3.55;;
16957;SDS011;8595;52.542;11.974;2023-04-01T02:38:59;5.68;;;3.00;;
16957;SDS011;8595;52.542;11.974;2023-04-01T02:41:27;4.43;;;3.80;;
16957;SDS011;8595;52.542;11.974;2023-04-01T02:43:54;7.47;;;3.72;;
16957;SDS011;8595;52.542;11.974;2023-04-01T02:46:22;4.35;;;3.40;;
16957;SDS011;8595;52.542;11.974;2023-04-01T02:48:48;6.80;;;4.10;;
16957;SDS011;8595;52.542;11.974;2023-04-01T02:51:15;10.25;;;4.13;;
16957;SDS011;8595;52.542;11.974;2023-04-01T02:53:42;7.60;;;4.22;;
16957;SDS011;8595;52.542;11.974;2023-04-01T02:56:10;10.65;;;4.35;;
16957;SDS011;8595;52.542;11.974;2023-04-01T02:58:36;7.07;;;3.70;;
16957;SDS011;8595;52.542;11.974;2023-04-01T03:01:03;6.22;;;3.58;;
16957;SDS011;8595;52.542;11.974;2023-04-01T03:03:30;6.13;;;3.40;;
16957;SDS011;8595;52.542;11.974;2023-04-01T03:05:57;8.68;;;3.70;;
16957;SDS011;8595;52.542;11.974;2023-04-01T03:08:25;5.73;;;3.70;;
16957;SDS011;8595;52.542;11.974;2023-04-01T03:10:51;9.25;;;3.55;;
16957;SDS011;8595;52.542;11.974;2023-04-01T03:13:19;7.40;;;3.75;;
16957;SDS011;8595;52.542;11.974;2023-04-01T03:15:47;8.68;;;4.40;;
16957;SDS011;8595;52.542;11.974;2023-04-01T03:18:14;6.93;;;4.00;;
16957;SDS011;8595;52.542;11.974;2023-04-01T03:20:41;9.38;;;4.30;;
16957;SDS011;8595;52.542;11.974;2023-04-01T03:23:07;8.37;;;3.80;;
16957;SDS011;8595;52.542;11.974;2023-04-01T03:25:34;6.13;;;4.05;;
16957;SDS011;8595;52.542;11.974;2023-04-01T03:28:01;9.82;;;4.40;;
16957;SDS011;8595;52.542;11.974;2023-04-01T03:30:29;4.68;;;4.03;;
16957;SDS011;8595;52.542;11.974;2023-04-01T03:32:56;6.70;;;3.83;;
16957;SDS011;8595;52.542;11.974;2023-04-01T03:35:23;6.40;;;4.30;;
16957;SDS011;8595;52.542;11.974;2023-04-01T03:37:49;8.98;;;4.20;;
16957;SDS011;8595;52.542;11.974;2023-04-01T03:40:16;10.95;;;4.50;;
16957;SDS011;8595;52.542;11.974;2023-04-01T03:42:43;8.18;;;4.15;;
16957;SDS011;8595;52.542;11.974;2023-04-01T03:45:10;12.45;;;4.22;;
16957;SDS011;8595;52.542;11.974;2023-04-01T03:47:39;6.88;;;4.35;;
16957;SDS011;8595;52.542;11.974;2023-04-01T03:50:06;11.38;;;5.32;;
16957;SDS011;8595;52.542;11.974;2023-04-01T03:52:33;6.43;;;4.32;;
16957;SDS011;8595;52.542;11.974;2023-04-01T03:55:00;10.45;;;5.97;;
16957;SDS011;8595;52.542;11.974;2023-04-01T03:57:27;6.40;;;4.60;;
16957;SDS011;8595;52.542;11.974;2023-04-01T03:59:54;12.32;;;5.40;;
16957;SDS011;8595;52.542;11.974;2023-04-01T04:02:21;10.05;;;5.25;;
16957;SDS011;8595;52.542;11.974;2023-04-01T04:04:49;12.10;;;6.20;;
16957;SDS011;8595;52.542;11.974;2023-04-01T04:07:15;9.80;;;5.68;;
16957;SDS011;8595;52.542;11.974;2023-04-01T04:09:42;10.38;;;4.80;;
16957;SDS011;8595;52.542;11.974;2023-04-01T04:12:09;10.88;;;5.82;;
16957;SDS011;8595;52.542;11.974;2023-04-01T04:14:36;9.35;;;6.15;;
16957;SDS011;8595;52.542;11.974;2023-04-01T04:17:03;12.02;;;6.43;;
16957;SDS011;8595;52.542;11.974;2023-04-01T04:19:31;8.68;;;6.03;;
16957;SDS011;8595;52.542;11.974;2023-04-01T04:22:00;11.57;;;6.13;;
16957;SDS011;8595;52.542;11.974;2023-04-01T04:24:27;11.90;;;5.55;;
16957;SDS011;8595;52.542;11.974;2023-04-01T04:26:54;10.40;;;6.35;;
16957;SDS011;8595;52.542;11.974;2023-04-01T04:29:21;9.18;;;6.18;;
16957;SDS011;8595;52.542;11.974;2023-04-01T04:31:47;8.93;;;6.63;;
16957;SDS011;8595;52.542;11.974;2023-04-01T04:34:14;13.82;;;6.97;;
16957;SDS011;8595;52.542;11.974;2023-04-01T04:36:41;11.98;;;5.72;;
16957;SDS011;8595;52.542;11.974;2023-04-01T04:39:09;11.45;;;7.15;;
16957;SDS011;8595;52.542;11.974;2023-04-01T04:41:37;13.50;;;6.45;;
16957;SDS011;8595;52.542;11.974;2023-04-01T04:44:05;10.13;;;6.63;;
16957;SDS011;8595;52.542;11.974;2023-04-01T04:46:32;7.80;;;5.78;;
16957;SDS011;8595;52.542;11.974;2023-04-01T04:48:59;13.43;;;6.53;;
16957;SDS011;8595;52.542;11.974;2023-04-01T04:51:27;8.85;;;6.22;;
16957;SDS011;8595;52.542;11.974;2023-04-01T04:53:54;13.48;;;7.07;;
16957;SDS011;8595;52.542;11.974;2023-04-01T04:56:22;11.32;;;5.55;;
16957;SDS011;8595;52.542;11.974;2023-04-01T04:58:50;10.45;;;5.40;;
16957;SDS011;8595;52.542;11.974;2023-04-01T05:01:16;10.60;;;6.07;;
16957;SDS011;8595;52.542;11.974;2023-04-01T05:03:44;9.80;;;6.18;;
16957;SDS011;8595;52.542;11.974;2023-04-01T05:06:11;11.90;;;6.20;;
16957;SDS011;8595;52.542;11.974;2023-04-01T05:08:41;8.37;;;5.17;;
16957;SDS011;8595;52.542;11.974;2023-04-01T05:11:09;10.40;;;5.63;;
16957;SDS011;8595;52.542;11.974;2023-04-01T05:13:39;7.93;;;4.97;;
16957;SDS011;8595;52.542;11.974;2023-04-01T05:16:07;7.25;;;5.85;;
16957;SDS011;8595;52.542;11.974;2023-04-01T05:18:34;9.75;;;5.38;;
16957;SDS011;8595;52.542;11.974;2023-04-01T05:21:01;6.17;;;4.30;;
16957;SDS011;8595;52.542;11.974;2023-04-01T05:23:28;10.32;;;4.80;;
16957;SDS011;8595;52.542;11.974;2023-04-01T05:25:57;7.95;;;4.38;;
16957;SDS011;8595;52.542;11.974;2023-04-01T05:28:23;11.77;;;5.13;;
16957;SDS011;8595;52.542;11.974;2023-04-01T05:30:51;8.03;;;4.23;;
16957;SDS011;8595;52.542;11.974;2023-04-01T05:33:19;9.63;;;4.47;;
16957;SDS011;8595;52.542;11.974;2023-04-01T05:35:45;11.70;;;5.72;;
16957;SDS011;8595;52.542;11.974;2023-04-01T05:38:12;14.07;;;7.53;;
16957;SDS011;8595;52.542;11.974;2023-04-01T05:40:38;12.18;;;5.60;;
16957;SDS011;8595;52.542;11.974;2023-04-01T05:43:05;6.18;;;4.78;;
16957;SDS011;8595;52.542;11.974;2023-04-01T05:45:32;10.43;;;6.50;;
16957;SDS011;8595;52.542;11.974;2023-04-01T05:48:01;10.85;;;6.10;;
16957;SDS011;8595;52.542;11.974;2023-04-01T05:50:28;9.13;;;5.13;;
16957;SDS011;8595;52.542;11.974;2023-04-01T05:52:54;9.73;;;5.20;;
16957;SDS011;8595;52.542;11.974;2023-04-01T05:55:21;10.18;;;4.53;;
16957;SDS011;8595;52.542;11.974;2023-04-01T05:57:48;9.77;;;4.47;;
16957;SDS011;8595;52.542;11.974;2023-04-01T06:00:15;9.30;;;5.10;;
16957;SDS011;8595;52.542;11.974;2023-04-01T06:02:44;7.95;;;4.00;;
16957;SDS011;8595;52.542;11.974;2023-04-01T06:05:14;10.40;;;4.65;;
16957;SDS011;8595;52.542;11.974;2023-04-01T06:07:44;11.65;;;5.78;;
16957;SDS011;8595;52.542;11.974;2023-04-01T06:10:14;8.35;;;4.30;;
16957;SDS011;8595;52.542;11.974;2023-04-01T06:12:46;11.50;;;5.30;;
16957;SDS011;8595;52.542;11.974;2023-04-01T06:15:27;10.05;;;4.60;;
16957;SDS011;8595;52.542;11.974;2023-04-01T06:18:11;11.30;;;5.60;;
16957;SDS011;8595;52.542;11.974;2023-04-01T06:21:05;7.90;;;5.15;;
16957;SDS011;8595;52.542;11.974;2023-04-01T06:23:46;12.38;;;6.28;;
16957;SDS011;8595;52.542;11.974;2023-04-01T06:26:24;11.35;;;6.28;;
16957;SDS011;8595;52.542;11.974;2023-04-01T06:29:03;9.63;;;4.85;;
16957;SDS011;8595;52.542;11.974;2023-04-01T06:31:55;9.57;;;5.37;;
16957;SDS011;8595;52.542;11.974;2023-04-01T06:37:52;9.75;;;6.03;;
16957;SDS011;8595;52.542;11.974;2023-04-01T06:40:42;8.82;;;5.30;;
16957;SDS011;8595;52.542;11.974;2023-04-01T06:43:27;10.57;;;5.30;;
16957;SDS011;8595;52.542;11.974;2023-04-01T06:46:07;10.02;;;5.00;;
16957;SDS011;8595;52.542;11.974;2023-04-01T06:48:47;9.90;;;5.80;;
16957;SDS011;8595;52.542;11.974;2023-04-01T06:51:29;11.85;;;6.68;;
16957;SDS011;8595;52.542;11.974;2023-04-01T06:54:08;13.93;;;5.25;;
16957;SDS011;8595;52.542;11.974;2023-04-01T06:56:38;8.82;;;5.90;;
16957;SDS011;8595;52.542;11.974;2023-04-01T06:59:09;10.50;;;5.45;;
16957;SDS011;8595;52.542;11.974;2023-04-01T07:01:41;17.25;;;7.28;;
16957;SDS011;8595;52.542;11.974;2023-04-01T07:04:13;10.27;;;5.80;;
16957;SDS011;8595;52.542;11.974;2023-04-01T07:06:44;15.38;;;6.75;;
16957;SDS011;8595;52.542;11.974;2023-04-01T07:09:16;9.50;;;5.13;;
16957;SDS011;8595;52.542;11.974;2023-04-01T07:11:45;7.82;;;4.47;;
16957;SDS011;8595;52.542;11.974;2023-04-01T07:14:13;7.03;;;4.47;;
16957;SDS011;8595;52.542;11.974;2023-04-01T07:16:46;11.90;;;4.60;;
16957;SDS011;8595;52.542;11.974;2023-04-01T07:19:18;13.10;;;4.45;;
16957;SDS011;8595;52.542;11.974;2023-04-01T07:21:52;8.55;;;4.13;;
16957;SDS011;8595;52.542;11.974;2023-04-01T07:24:25;10.65;;;5.10;;
16957;SDS011;8595;52.542;11.974;2023-04-01T07:26:54;10.23;;;4.50;;
16957;SDS011;8595;52.542;11.974;2023-04-01T07:29:22;9.30;;;4.28;;
16957;SDS011;8595;52.542;11.974;2023-04-01T07:32:09;8.25;;;4.20;;
16957;SDS011;8595;52.542;11.974;2023-04-01T07:34:46;8.18;;;4.30;;
16957;SDS011;8595;52.542;11.974;2023-04-01T07:37:22;8.55;;;4.03;;
16957;SDS011;8595;52.542;11.974;2023-04-01T07:39:57;7.13;;;4.20;;
16957;SDS011;8595;52.542;11.974;2023-04-01T07:42:35;5.13;;;3.70;;
16957;SDS011;8595;52.542;11.974;2023-04-01T07:45:15;9.35;;;4.85;;
16957;SDS011;8595;52.542;11.974;2023-04-01T07:47:59;8.90;;;4.70;;
16957;SDS011;8595;52.542;11.974;2023-04-01T07:50:37;6.13;;;4.10;;
16957;SDS011;8595;52.542;11.974;2023-04-01T07:53:13;7.20;;;4.53;;
16957;SDS011;8595;52.542;11.974;2023-04-01T07:55:50;7.32;;;4.35;;
16957;SDS011;8595;52.542;11.974;2023-04-01T07:58:22;11.18;;;5.20;;
16957;SDS011;8595;52.542;11.974;2023-04-01T08:00:56;7.85;;;3.85;;
16957;SDS011;8595;52.542;11.974;2023-04-01T08:03:36;6.28;;;3.95;;
16957;SDS011;8595;52.542;11.974;2023-04-01T08:06:13;9.27;;;4.72;;
16957;SDS011;8595;52.542;11.974;2023-04-01T08:08:52;5.35;;;3.95;;
16957;SDS011;8595;52.542;11.974;2023-04-01T08:11:31;6.88;;;4.57;;
16957;SDS011;8595;52.542;11.974;2023-04-01T08:14:08;8.02;;;4.75;;
16957;SDS011;8595;52.542;11.974;2023-04-01T08:16:46;7.95;;;4.65;;
16957;SDS011;8595;52.542;11.974;2023-04-01T08:19:26;6.18;;;4.32;;
16957;SDS011;8595;52.542;11.974;2023-04-01T08:22:04;6.32;;;3.50;;
16957;SDS011;8595;52.542;11.974;2023-04-01T08:24:38;9.25;;;4.15;;
16957;SDS011;8595;52.542;11.974;2023-04-01T08:27:11;5.00;;;3.40;;
16957;SDS011;8595;52.542;11.974;2023-04-01T08:29:45;5.32;;;3.80;;
16957;SDS011;8595;52.542;11.974;2023-04-01T08:32:17;5.13;;;3.25;;
16957;SDS011;8595;52.542;11.974;2023-04-01T08:34:50;6.68;;;3.97;;
16957;SDS011;8595;52.542;11.974;2023-04-01T08:37:21;5.93;;;3.90;;
16957;SDS011;8595;52.542;11.974;2023-04-01T08:39:52;6.47;;;3.95;;
16957;SDS011;8595;52.542;11.974;2023-04-01T08:45:22;5.13;;;3.63;;
16957;SDS011;8595;52.542;11.974;2023-04-01T08:48:05;4.35;;;3.35;;
16957;SDS011;8595;52.542;11.974;2023-04-01T08:50:57;5.28;;;4.03;;
16957;SDS011;8595;52.542;11.974;2023-04-01T08:53:45;5.30;;;3.33;;
16957;SDS011;8595;52.542;11.974;2023-04-01T08:56:33;6.20;;;3.25;;
16957;SDS011;8595;52.542;11.974;2023-04-01T08:59:13;5.13;;;2.85;;
16957;SDS011;8595;52.542;11.974;2023-04-01T09:02:05;6.25;;;2.25;;
16957;SDS011;8595;52.542;11.974;2023-04-01T09:08:00;3.22;;;1.80;;
16957;SDS011;8595;52.542;11.974;2023-04-01T09:10:53;3.92;;;2.22;;
16957;SDS011;8595;52.542;11.974;2023-04-01T09:13:42;5.60;;;2.22;;
16957;SDS011;8595;52.542;11.974;2023-04-01T09:16:33;4.25;;;2.08;;
16957;SDS011;8595;52.542;11.974;2023-04-01T09:19:15;5.47;;;2.90;;
16957;SDS011;8595;52.542;11.974;2023-04-01T09:24:40;3.92;;;2.40;;
16957;SDS011;8595;52.542;11.974;2023-04-01T09:27:14;3.92;;;2.47;;
16957;SDS011;8595;52.542;11.974;2023-04-01T09:30:05;5.25;;;2.10;;
16957;SDS011;8595;52.542;11.974;2023-04-01T09:36:02;3.05;;;1.58;;
16957;SDS011;8595;52.542;11.974;2023-04-01T09:38:36;3.25;;;1.77;;
16957;SDS011;8595;52.542;11.974;2023-04-01T09:41:12;2.10;;;1.60;;
16957;SDS011;8595;52.542;11.974;2023-04-01T09:44:00;3.42;;;1.98;;
16957;SDS011;8595;52.542;11.974;2023-04-01T09:46:32;3.65;;;1.92;;
16957;SDS011;8595;52.542;11.974;2023-04-01T09:49:19;2.40;;;1.90;;
16957;SDS011;8595;52.542;11.974;2023-04-01T09:52:16;2.47;;;1.42;;
16957;SDS011;8595;52.542;11.974;2023-04-01T10:07:28;2.30;;;1.65;;
16957;SDS011;8595;52.542;11.974;2023-04-01T10:19:31;3.42;;;2.80;;
16957;SDS011;8595;52.542;11.974;2023-04-01T10:22:34;6.55;;;3.55;;
16957;SDS011;8595;52.542;11.974;2023-04-01T10:28:22;4.65;;;4.15;;
16957;SDS011;8595;52.542;11.974;2023-04-01T10:31:27;3.60;;;3.30;;
16957;SDS011;8595;52.542;11.974;2023-04-01T10:34:30;4.05;;;3.33;;
16957;SDS011;8595;52.542;11.974;2023-04-01T10:37:23;3.85;;;3.45;;
16957;SDS011;8595;52.542;11.974;2023-04-01T10:40:35;4.28;;;3.47;;
16957;SDS011;8595;52.542;11.974;2023-04-01T10:43:35;4.20;;;3.65;;
16957;SDS011;8595;52.542;11.974;2023-04-01T10:49:37;3.35;;;3.05;;
16957;SDS011;8595;52.542;11.974;2023-04-01T10:52:32;3.80;;;3.38;;
16957;SDS011;8595;52.542;11.974;2023-04-01T10:55:35;3.55;;;3.15;;
16957;SDS011;8595;52.542;11.974;2023-04-01T10:58:22;5.63;;;4.13;;
16957;SDS011;8595;52.542;11.974;2023-04-01T11:01:19;5.82;;;4.38;;
16957;SDS011;8595;52.542;11.974;2023-04-01T11:04:23;4.53;;;3.38;;
16957;SDS011;8595;52.542;11.974;2023-04-01T11:13:50;5.95;;;4.05;;
16957;SDS011;8595;52.542;11.974;2023-04-01T11:22:50;5.00;;;3.00;;
16957;SDS011;8595;52.542;11.974;2023-04-01T11:25:30;4.38;;;3.25;;
16957;SDS011;8595;52.542;11.974;2023-04-01T11:28:22;5.28;;;3.75;;
16957;SDS011;8595;52.542;11.974;2023-04-01T11:31:12;5.43;;;4.07;;
16957;SDS011;8595;52.542;11.974;2023-04-01T11:33:50;4.13;;;3.55;;
16957;SDS011;8595;52.542;11.974;2023-04-01T11:36:24;6.03;;;3.92;;
16957;SDS011;8595;52.542;11.974;2023-04-01T11:41:51;5.53;;;4.25;;
16957;SDS011;8595;52.542;11.974;2023-04-01T11:44:28;4.68;;;3.40;;
16957;SDS011;8595;52.542;11.974;2023-04-01T11:47:02;4.50;;;4.00;;
16957;SDS011;8595;52.542;11.974;2023-04-01T11:49:40;5.72;;;4.10;;
16957;SDS011;8595;52.542;11.974;2023-04-01T11:52:18;4.40;;;3.92;;
16957;SDS011;8595;52.542;11.974;2023-04-01T11:57:51;4.45;;;4.05;;
16957;SDS011;8595;52.542;11.974;2023-04-01T12:03:37;5.20;;;4.60;;
16957;SDS011;8595;52.542;11.974;2023-04-01T12:06:25;5.68;;;5.18;;
16957;SDS011;8595;52.542;11.974;2023-04-01T12:08:58;6.05;;;5.45;;
16957;SDS011;8595;52.542;11.974;2023-04-01T12:11:33;4.68;;;4.15;;
16957;SDS011;8595;52.542;11.974;2023-04-01T12:14:05;5.63;;;5.13;;
16957;SDS011;8595;52.542;11.974;2023-04-01T12:16:46;4.97;;;4.47;;
16957;SDS011;8595;52.542;11.974;2023-04-01T12:19:25;5.30;;;4.80;;
16957;SDS011;8595;52.542;11.974;2023-04-01T12:22:08;5.28;;;4.78;;
16957;SDS011;8595;52.542;11.974;2023-04-01T12:24:46;5.25;;;4.80;;
16957;SDS011;8595;52.542;11.974;2023-04-01T12:27:20;5.50;;;5.00;;
16957;SDS011;8595;52.542;11.974;2023-04-01T12:33:00;5.63;;;5.13;;
16957;SDS011;8595;52.542;11.974;2023-04-01T12:35:37;6.07;;;4.60;;
16957;SDS011;8595;52.542;11.974;2023-04-01T12:38:21;5.57;;;4.85;;
16957;SDS011;8595;52.542;11.974;2023-04-01T12:41:02;7.35;;;5.75;;
16957;SDS011;8595;52.542;11.974;2023-04-01T12:43:53;5.32;;;4.82;;
16957;SDS011;8595;52.542;11.974;2023-04-01T12:46:41;5.40;;;4.90;;
16957;SDS011;8595;52.542;11.974;2023-04-01T12:49:29;5.00;;;4.60;;
16957;SDS011;8595;52.542;11.974;2023-04-01T12:52:11;5.90;;;5.35;;
16957;SDS011;8595;52.542;11.974;2023-04-01T12:57:59;5.75;;;4.68;;
16957;SDS011;8595;52.542;11.974;2023-04-01T13:00:45;4.60;;;4.20;;
16957;SDS011;8595;52.542;11.974;2023-04-01T13:03:34;5.20;;;4.70;;
16957;SDS011;8595;52.542;11.974;2023-04-01T13:06:21;5.28;;;4.78;;
16957;SDS011;8595;52.542;11.974;2023-04-01T13:08:57;4.40;;;4.00;;
16957;SDS011;8595;52.542;11.974;2023-04-01T13:11:36;4.82;;;4.30;;
16957;SDS011;8595;52.542;11.974;2023-04-01T13:14:18;3.97;;;3.65;;
16957;SDS011;8595;52.542;11.974;2023-04-01T13:17:08;4.50;;;4.10;;
16957;SDS011;8595;52.542;11.974;2023-04-01T13:19:44;3.65;;;3.30;;
16957;SDS011;8595;52.542;11.974;2023-04-01T13:22:19;4.25;;;3.80;;
16957;SDS011;8595;52.542;11.974;2023-04-01T13:24:54;4.60;;;3.80;;
16957;SDS011;8595;52.542;11.974;2023-04-01T13:27:28;3.95;;;3.65;;
16957;SDS011;8595;52.542;11.974;2023-04-01T13:30:02;4.22;;;3.60;;
16957;SDS011;8595;52.542;11.974;2023-04-01T13:32:44;3.92;;;3.25;;
16957;SDS011;8595;52.542;11.974;2023-04-01T13:35:19;3.28;;;2.97;;
16957;SDS011;8595;52.542;11.974;2023-04-01T13:37:58;3.10;;;2.80;;
16957;SDS011;8595;52.542;11.974;2023-04-01T13:40:40;2.97;;;2.67;;
16957;SDS011;8595;52.542;11.974;2023-04-01T13:43:18;3.10;;;2.80;;
16957;SDS011;8595;52.542;11.974;2023-04-01T13:51:49;2.60;;;2.40;;
16957;SDS011;8595;52.542;11.974;2023-04-01T13:54:32;3.70;;;3.08;;
16957;SDS011;8595;52.542;11.974;2023-04-01T13:57:33;2.67;;;2.47;;
16957;SDS011;8595;52.542;11.974;2023-04-01T14:00:19;3.33;;;3.03;;
16957;SDS011;8595;52.542;11.974;2023-04-01T14:03:03;3.28;;;2.92;;
16957;SDS011;8595;52.542;11.974;2023-04-01T14:05:45;3.72;;;3.00;;
16957;SDS011;8595;52.542;11.974;2023-04-01T14:08:20;3.87;;;3.10;;
16957;SDS011;8595;52.542;11.974;2023-04-01T14:11:05;3.40;;;3.10;;
16957;SDS011;8595;52.542;11.974;2023-04-01T14:13:40;3.15;;;2.85;;
16957;SDS011;8595;52.542;11.974;2023-04-01T14:16:27;4.82;;;3.13;;
16957;SDS011;8595;52.542;11.974;2023-04-01T14:19:11;3.45;;;3.15;;
16957;SDS011;8595;52.542;11.974;2023-04-01T14:21:50;4.95;;;3.20;;
16957;SDS011;8595;52.542;11.974;2023-04-01T14:24:31;3.87;;;2.80;;
16957;SDS011;8595;52.542;11.974;2023-04-01T14:30:13;6.28;;;2.70;;
16957;SDS011;8595;52.542;11.974;2023-04-01T14:32:56;3.00;;;2.80;;
16957;SDS011;8595;52.542;11.974;2023-04-01T14:35:32;3.20;;;2.90;;
16957;SDS011;8595;52.542;11.974;2023-04-01T14:38:27;4.33;;;2.90;;
16957;SDS011;8595;52.542;11.974;2023-04-01T14:41:04;3.23;;;2.37;;
16957;SDS011;8595;52.542;11.974;2023-04-01T14:43:46;5.60;;;3.07;;
16957;SDS011;8595;52.542;11.974;2023-04-01T14:49:22;3.47;;;2.92;;
16957;SDS011;8595;52.542;11.974;2023-04-01T14:51:56;3.20;;;2.50;;
16957;SDS011;8595;52.542;11.974;2023-04-01T14:54:36;3.03;;;2.75;;
16957;SDS011;8595;52.542;11.974;2023-04-01T14:57:10;3.10;;;2.50;;
16957;SDS011;8595;52.542;11.974;2023-04-01T14:59:40;3.67;;;3.10;;
16957;SDS011;8595;52.542;11.974;2023-04-01T15:02:14;3.30;;;3.00;;
16957;SDS011;8595;52.542;11.974;2023-04-01T15:04:58;2.60;;;2.40;;
16957;SDS011;8595;52.542;11.974;2023-04-01T15:07:36;5.60;;;2.95;;
16957;SDS011;8595;52.542;11.974;2023-04-01T15:13:46;3.80;;;3.00;;
16957;SDS011;8595;52.542;11.974;2023-04-01T15:16:23;4.13;;;2.80;;
16957;SDS011;8595;52.542;11.974;2023-04-01T15:19:00;3.40;;;3.10;;
16957;SDS011;8595;52.542;11.974;2023-04-01T15:21:40;4.97;;;3.83;;
16957;SDS011;8595;52.542;11.974;2023-04-01T15:24:22;6.33;;;3.10;;
16957;SDS011;8595;52.542;11.974;2023-04-01T15:30:02;3.23;;;2.77;;
16957;SDS011;8595;52.542;11.974;2023-04-01T15:32:47;3.03;;;2.73;;
16957;SDS011;8595;52.542;11.974;2023-04-01T15:35:28;4.40;;;4.00;;
16957;SDS011;8595;52.542;11.974;2023-04-01T15:38:05;3.63;;;3.33;;
16957;SDS011;8595;52.542;11.974;2023-04-01T15:40:40;4.90;;;3.10;;
16957;SDS011;8595;52.542;11.974;2023-04-01T15:43:15;3.10;;;2.80;;
16957;SDS011;8595;52.542;11.974;2023-04-01T15:45:56;4.30;;;3.42;;
16957;SDS011;8595;52.542;11.974;2023-04-01T15:48:41;6.70;;;3.50;;
16957;SDS011;8595;52.542;11.974;2023-04-01T15:51:25;4.57;;;2.80;;
16957;SDS011;8595;52.542;11.974;2023-04-01T15:54:28;4.73;;;3.47;;
16957;SDS011;8595;52.542;11.974;2023-04-01T15:57:20;3.83;;;3.20;;
16957;SDS011;8595;52.542;11.974;2023-04-01T15:59:55;4.23;;;3.70;;
16957;SDS011;8595;52.542;11.974;2023-04-01T16:02:33;7.83;;;4.60;;
16957;SDS011;8595;52.542;11.974;2023-04-01T16:05:07;5.97;;;4.10;;
16957;SDS011;8595;52.542;11.974;2023-04-01T16:08:04;5.47;;;3.60;;
16957;SDS011;8595;52.542;11.974;2023-04-01T16:10:52;4.77;;;3.97;;
16957;SDS011;8595;52.542;11.974;2023-04-01T16:13:33;5.27;;;3.27;;
16957;SDS011;8595;52.542;11.974;2023-04-01T16:16:17;4.70;;;3.53;;
16957;SDS011;8595;52.542;11.974;2023-04-01T16:21:59;6.47;;;3.87;;
16957;SDS011;8595;52.542;11.974;2023-04-01T16:24:33;3.93;;;3.40;;
16957;SDS011;8595;52.542;11.974;2023-04-01T16:27:08;4.00;;;3.50;;
16957;SDS011;8595;52.542;11.974;2023-04-01T16:29:40;3.53;;;3.20;;
16957;SDS011;8595;52.542;11.974;2023-04-01T16:32:15;3.50;;;3.20;;
16957;SDS011;8595;52.542;11.974;2023-04-01T16:34:47;5.03;;;2.83;;
16957;SDS011;8595;52.542;11.974;2023-04-01T16:37:29;8.27;;;3.30;;
16957;SDS011;8595;52.542;11.974;2023-04-01T16:40:02;4.03;;;3.20;;
16957;SDS011;8595;52.542;11.974;2023-04-01T16:42:43;5.80;;;3.93;;
16957;SDS011;8595;52.542;11.974;2023-04-01T16:45:16;5.80;;;3.70;;
16957;SDS011;8595;52.542;11.974;2023-04-01T16:47:50;5.37;;;4.03;;
16957;SDS011;8595;52.542;11.974;2023-04-01T16:50:20;6.13;;;3.93;;
16957;SDS011;8595;52.542;11.974;2023-04-01T16:53:01;4.83;;;3.60;;
16957;SDS011;8595;52.542;11.974;2023-04-01T16:55:41;6.53;;;4.73;;
16957;SDS011;8595;52.542;11.974;2023-04-01T16:58:14;4.53;;;3.73;;
16957;SDS011;8595;52.542;11.974;2023-04-01T17:00:48;5.30;;;3.70;;
16957;SDS011;8595;52.542;11.974;2023-04-01T17:03:17;10.67;;;6.10;;
16957;SDS011;8595;52.542;11.974;2023-04-01T17:05:52;7.20;;;3.87;;
16957;SDS011;8595;52.542;11.974;2023-04-01T17:08:33;6.03;;;3.93;;